Time;durP1;ratioP1;P1;durP2;ratioP2;P2;SDS_P1;SDS_P2;PMS_P1;PMS_P2;Temp;Humidity;BMP_temperature;BMP_pressure;BME280_temperature;BME280_humidity;BME280_pressure;Samples;Min_cycle;Max_cycle;Signal;HPM_P1;HPM_P2
2023/06/17 00:04:47;;;;;;;9.52;6.78;;;;;;;10.57;100.00;96493.63;10582302;28;20318;-74
2023/06/17 00:09:48;;;;;;;10.93;7.43;;;;;;;10.63;100.00;96484.31;10582749;28;20186;-74
2023/06/17 00:14:48;;;;;;;9.32;6.55;;;;;;;10.81;100.00;96468.41;10581256;28;20221;-74
2023/06/17 00:19:48;;;;;;;13.02;7.10;;;;;;;10.89;100.00;96455.31;10582410;28;20280;-74
2023/06/17 00:24:49;;;;;;;8.02;6.88;;;;;;;10.75;100.00;96448.94;10581888;28;20190;-74
2023/06/17 00:29:49;;;;;;;8.18;6.60;;;;;;;10.74;100.00;96446.47;10581074;28;20190;-74
2023/06/17 00:34:49;;;;;;;9.93;7.63;;;;;;;10.65;100.00;96435.97;10581385;28;20205;-74
2023/06/17 00:39:50;;;;;;;8.65;6.72;;;;;;;10.64;100.00;96441.38;10580809;28;20212;-74
2023/06/17 00:44:50;;;;;;;8.38;6.70;;;;;;;10.75;100.00;96427.13;10562115;28;20217;-74
2023/06/17 00:49:53;;;;;;;9.68;7.13;;;;;;;10.89;100.00;96413.38;10580681;28;20587;-74
2023/06/17 00:54:53;;;;;;;12.93;6.55;;;;;;;10.89;100.00;96419.44;10562851;28;20206;-74
2023/06/17 00:59:54;;;;;;;11.30;6.97;;;;;;;10.75;100.00;96407.00;10561359;28;20190;-74
2023/06/17 01:04:54;;;;;;;7.85;6.60;;;;;;;10.80;100.00;96409.13;10519492;28;20227;-74
2023/06/17 01:10:05;;;;;;;7.30;6.43;;;;;;;10.77;100.00;96414.72;10538512;28;20270;-74
2023/06/17 01:15:06;;;;;;;9.15;6.47;;;;;;;10.65;100.00;96422.06;10502374;28;20253;-74
2023/06/17 01:20:07;;;;;;;7.10;6.30;;;;;;;10.62;100.00;96411.91;10519348;28;20289;-74
2023/06/17 01:25:09;;;;;;;6.80;6.10;;;;;;;10.61;100.00;96410.28;10537636;28;20183;-74
2023/06/17 01:30:10;;;;;;;6.55;5.93;;;;;;;10.61;100.00;96426.84;10518966;28;20193;-74
2023/06/17 01:35:16;;;;;;;9.45;6.40;;;;;;;10.63;100.00;96426.66;10535749;28;20574;-73
2023/06/17 01:40:21;;;;;;;8.02;7.20;;;;;;;10.74;100.00;96415.03;10536301;28;20218;-74
2023/06/17 01:45:23;;;;;;;8.18;6.60;;;;;;;10.69;100.00;96412.91;10518165;28;20179;-74
2023/06/17 01:50:23;;;;;;;9.77;7.18;;;;;;;10.84;100.00;96410.41;10535273;28;20186;-74
2023/06/17 01:55:24;;;;;;;8.48;6.55;;;;;;;11.02;100.00;96399.75;10535660;28;20242;-74
2023/06/17 02:00:26;;;;;;;8.60;5.68;;;;;;;11.19;100.00;96387.44;10535119;28;20551;-74
2023/06/17 02:05:26;;;;;;;8.57;6.10;;;;;;;11.26;100.00;96382.34;10573992;28;20605;-73
2023/06/17 02:10:27;;;;;;;7.82;6.47;;;;;;;11.21;100.00;96374.97;10577259;28;20190;-74
2023/06/17 02:15:27;;;;;;;9.93;6.72;;;;;;;11.14;100.00;96368.78;10559280;28;20222;-73
2023/06/17 02:20:27;;;;;;;9.38;6.85;;;;;;;11.16;100.00;96356.31;10558981;28;20181;-73
2023/06/17 02:25:28;;;;;;;9.32;6.65;;;;;;;11.04;100.00;96355.84;10576770;28;20194;-74
2023/06/17 02:30:28;;;;;;;9.93;6.97;;;;;;;11.02;100.00;96353.38;10576933;28;20339;-74
2023/06/17 02:35:28;;;;;;;8.50;6.70;;;;;;;11.01;100.00;96364.03;10576267;28;20229;-73
2023/06/17 02:40:29;;;;;;;12.15;7.28;;;;;;;11.21;100.00;96348.75;10557609;28;20297;-74
2023/06/17 02:45:29;;;;;;;11.90;7.10;;;;;;;11.28;100.00;96352.31;10558226;28;20589;-73
2023/06/17 02:50:30;;;;;;;9.63;6.63;;;;;;;11.42;100.00;96346.38;10541149;28;20247;-74
2023/06/17 02:55:30;;;;;;;8.15;5.65;;;;;;;11.44;100.00;96343.59;10515381;28;20218;-74
2023/06/17 03:00:34;;;;;;;11.88;6.57;;;;;;;11.41;100.00;96338.69;10515841;28;20625;-74
2023/06/17 03:05:35;;;;;;;12.15;7.30;;;;;;;11.56;100.00;96330.88;10509989;28;20226;-73
2023/06/17 03:10:36;;;;;;;12.30;7.20;;;;;;;11.60;100.00;96332.19;10507731;28;20240;-74
2023/06/17 03:15:42;;;;;;;11.60;7.20;;;;;;;11.58;100.00;96327.13;10507622;28;20218;-73
2023/06/17 03:20:43;;;;;;;9.25;7.15;;;;;;;11.68;100.00;96334.75;10507078;28;20682;-73
2023/06/17 03:25:46;;;;;;;9.27;6.68;;;;;;;11.73;100.00;96335.06;10525242;28;20258;-74
2023/06/17 03:30:47;;;;;;;7.72;6.95;;;;;;;11.89;100.00;96328.91;10507576;28;20260;-73
2023/06/17 03:35:49;;;;;;;7.55;6.22;;;;;;;12.02;100.00;96330.16;10506867;28;20245;-73
2023/06/17 03:40:50;;;;;;;6.75;5.97;;;;;;;11.99;100.00;96330.50;10523805;28;20546;-74
2023/06/17 03:45:50;;;;;;;7.13;6.40;;;;;;;12.05;100.00;96324.56;10506355;28;20197;-73
2023/06/17 03:50:51;;;;;;;9.52;6.70;;;;;;;12.11;100.00;96331.72;10506472;28;20233;-73
2023/06/17 03:55:52;;;;;;;7.93;6.28;;;;;;;12.07;100.00;96326.03;10505587;28;20215;-73
2023/06/17 04:00:53;;;;;;;15.43;6.70;;;;;;;12.02;100.00;96330.16;10506818;28;20190;-73
2023/06/17 04:05:54;;;;;;;11.10;7.20;;;;;;;12.00;100.00;96327.69;10531681;28;20235;-73
2023/06/17 04:10:54;;;;;;;9.07;7.15;;;;;;;12.00;100.00;96332.16;10514359;28;20603;-73
2023/06/17 04:15:56;;;;;;;9.15;7.78;;;;;;;11.98;100.00;96337.56;10513862;28;20214;-73
2023/06/17 04:20:57;;;;;;;9.27;7.55;;;;;;;12.09;100.00;96337.16;10513334;28;20194;-73
2023/06/17 04:26:01;;;;;;;9.93;8.00;;;;;;;12.11;100.00;96337.81;10513488;28;20746;-74
2023/06/17 04:31:02;;;;;;;8.98;7.35;;;;;;;12.26;100.00;96332.59;10515485;28;20194;-73
2023/06/17 04:36:08;;;;;;;11.60;7.50;;;;;;;12.42;100.00;96339.53;10504788;28;20274;-73
2023/06/17 04:41:09;;;;;;;9.95;7.43;;;;;;;12.61;100.00;96335.59;10515179;28;20214;-73
2023/06/17 04:46:10;;;;;;;10.90;8.13;;;;;;;12.67;100.00;96339.31;10520529;28;20183;-73
2023/06/17 04:51:10;;;;;;;11.23;8.73;;;;;;;12.33;100.00;96353.72;10521250;28;20179;-73
2023/06/17 04:56:12;;;;;;;9.27;8.10;;;;;;;12.40;100.00;96336.25;10521228;28;20242;-73
2023/06/17 05:01:13;;;;;;;10.50;8.60;;;;;;;12.53;100.00;96348.81;10520666;28;20316;-73
2023/06/17 05:06:14;;;;;;;11.15;8.45;;;;;;;12.38;100.00;96346.13;10555864;28;20179;-73
2023/06/17 05:11:14;;;;;;;11.20;9.02;;;;;;;12.30;100.00;96348.84;10545728;28;20190;-72
2023/06/17 05:16:17;;;;;;;9.27;8.30;;;;;;;12.44;100.00;96350.69;10561854;28;20310;-72
2023/06/17 05:21:21;;;;;;;12.68;9.18;;;;;;;12.34;100.00;96355.34;10580129;28;20192;-73
2023/06/17 05:26:22;;;;;;;14.75;9.38;;;;;;;12.67;100.00;96360.34;10579783;28;20250;-73
2023/06/17 05:31:23;;;;;;;11.13;9.85;;;;;;;12.48;100.00;96365.09;10561631;28;20532;-72
2023/06/17 05:36:23;;;;;;;13.18;9.32;;;;;;;12.70;100.00;96375.75;10544042;28;20218;-72
2023/06/17 05:41:24;;;;;;;14.80;9.40;;;;;;;12.78;100.00;96366.97;10578397;28;20178;-72
2023/06/17 05:46:26;;;;;;;14.32;10.30;;;;;;;12.93;100.00;96365.19;10543910;28;20185;-72
2023/06/17 05:51:28;;;;;;;11.82;9.60;;;;;;;13.24;100.00;96360.75;10560419;28;20534;-72
2023/06/17 05:56:29;;;;;;;10.00;9.00;;;;;;;13.14;100.00;96353.97;10560151;28;20647;-73
2023/06/17 06:01:31;;;;;;;14.27;10.38;;;;;;;13.12;100.00;96355.94;10578106;28;20713;-72
2023/06/17 06:06:31;;;;;;;14.77;9.82;;;;;;;13.06;100.00;96364.53;10543166;28;20181;-72
2023/06/17 06:11:32;;;;;;;11.98;9.27;;;;;;;13.38;100.00;96367.84;10541144;28;20297;-77
2023/06/17 06:16:33;;;;;;;11.38;10.18;;;;;;;13.61;100.00;96362.47;10519395;28;20257;-74
2023/06/17 06:21:34;;;;;;;12.68;10.40;;;;;;;13.84;100.00;96358.88;10535563;28;20614;-74
2023/06/17 06:26:35;;;;;;;10.80;9.70;;;;;;;14.11;100.00;96351.28;10516821;28;20186;-74
2023/06/17 06:31:35;;;;;;;12.85;10.43;;;;;;;14.43;100.00;96355.22;10551543;28;20284;-73
2023/06/17 06:36:36;;;;;;;13.50;11.10;;;;;;;14.69;100.00;96364.38;10540446;28;20648;-74
2023/06/17 06:41:37;;;;;;;11.88;10.27;;;;;;;15.48;100.00;96350.88;10556768;28;20184;-74
2023/06/17 06:46:56;;;;;;;11.55;9.88;;;;;;;15.38;100.00;96365.44;10555607;28;20209;-74
2023/06/17 06:51:56;;;;;;;11.80;10.23;;;;;;;16.36;100.00;96352.75;10558619;28;20265;-74
2023/06/17 06:56:57;;;;;;;11.65;9.40;;;;;;;16.33;100.00;96358.44;10557399;28;20301;-74
2023/06/17 07:01:59;;;;;;;13.95;10.35;;;;;;;16.56;100.00;96352.75;10550316;28;20276;-75
2023/06/17 07:07:00;;;;;;;14.57;10.35;;;;;;;15.89;100.00;96370.34;10540365;28;20276;-74
2023/06/17 07:12:06;;;;;;;12.38;10.45;;;;;;;16.63;100.00;96360.72;10558053;28;20206;-74
2023/06/17 07:17:10;;;;;;;11.93;9.50;;;;;;;17.89;97.83;96360.69;10540363;28;20210;-74
2023/06/17 07:22:12;;;;;;;12.77;9.43;;;;;;;16.85;99.63;96361.31;10556958;28;20194;-75
2023/06/17 07:27:12;;;;;;;12.50;9.77;;;;;;;16.43;100.00;96371.25;10574695;28;20186;-75
2023/06/17 07:32:13;;;;;;;15.45;11.77;;;;;;;15.89;100.00;96367.69;10554969;28;20273;-77
2023/06/17 07:37:14;;;;;;;17.50;12.13;;;;;;;15.47;100.00;96367.72;10551421;28;20224;-77
2023/06/17 07:42:16;;;;;;;16.50;12.48;;;;;;;16.28;100.00;96379.41;10552731;28;20725;-76
2023/06/17 07:47:17;;;;;;;19.27;12.15;;;;;;;16.74;100.00;96361.94;10541735;28;20205;-77
2023/06/17 07:52:18;;;;;;;15.43;12.20;;;;;;;16.90;100.00;96371.31;10514445;28;20189;-76
2023/06/17 07:57:18;;;;;;;17.13;11.50;;;;;;;18.00;89.20;96328.22;10534525;28;20228;-76
2023/06/17 08:02:19;;;;;;;12.52;10.93;;;;;;;17.33;88.86;96338.25;10573278;28;20234;-76
2023/06/17 08:07:20;;;;;;;15.02;11.98;;;;;;;17.60;87.70;96337.13;10559669;28;20186;-76
2023/06/17 08:12:20;;;;;;;16.42;12.13;;;;;;;17.14;93.38;96355.81;10582080;28;20193;-77
2023/06/17 08:17:20;;;;;;;17.20;12.63;;;;;;;17.14;91.34;96347.88;10582446;28;20300;-76
2023/06/17 08:22:21;;;;;;;16.55;13.63;;;;;;;16.53;94.32;96355.81;10581785;28;20197;-77
2023/06/17 08:27:22;;;;;;;16.42;12.20;;;;;;;17.58;92.46;96341.84;10563343;28;20246;-76
2023/06/17 08:32:22;;;;;;;16.27;12.45;;;;;;;17.73;88.25;96323.00;10564324;28;20208;-77
2023/06/17 08:37:23;;;;;;;15.95;11.75;;;;;;;17.44;88.88;96319.06;10580447;28;20222;-76
2023/06/17 08:42:23;;;;;;;14.02;12.10;;;;;;;18.04;87.34;96324.13;10556876;28;20572;-76
2023/06/17 08:47:24;;;;;;;18.98;11.73;;;;;;;18.51;84.21;96314.00;10539319;28;20546;-76
2023/06/17 08:52:26;;;;;;;14.82;11.05;;;;;;;18.34;81.60;96300.44;10538489;28;20186;-76
2023/06/17 08:57:27;;;;;;;11.95;9.52;;;;;;;19.79;76.05;96265.66;10538152;28;20823;-76
2023/06/17 09:02:28;;;;;;;13.60;10.23;;;;;;;18.93;78.94;96296.69;10565999;27;20607;-76
2023/06/17 09:07:28;;;;;;;14.60;11.88;;;;;;;19.29;81.33;96303.06;10604935;27;20192;-74
2023/06/17 09:12:36;;;;;;;13.90;11.80;;;;;;;18.64;80.54;96304.28;10583515;27;20198;-77
2023/06/17 09:17:38;;;;;;;15.32;11.35;;;;;;;19.02;78.68;96295.38;10579138;28;20225;-76
2023/06/17 09:22:40;;;;;;;10.07;9.07;;;;;;;20.76;74.62;96280.53;10560877;28;20272;-76
2023/06/17 09:27:48;;;;;;;12.25;8.70;;;;;;;21.13;72.68;96285.63;10559178;28;20313;-76
2023/06/17 09:32:51;;;;;;;13.63;8.95;;;;;;;22.39;68.19;96267.97;10578541;28;20202;-76
2023/06/17 09:37:53;;;;;;;11.93;10.02;;;;;;;20.57;73.92;96310.94;10578970;28;20594;-76
2023/06/17 09:42:53;;;;;;;12.80;10.75;;;;;;;20.39;73.11;96299.34;10583586;27;20186;-77
2023/06/17 09:47:54;;;;;;;11.20;9.95;;;;;;;20.14;72.27;96279.06;10559315;28;20182;-77
2023/06/17 09:52:55;;;;;;;13.45;11.57;;;;;;;19.83;71.87;96274.00;10578010;28;20200;-78
2023/06/17 10:04:20;;;;;;;11.85;10.65;;;;;;;20.24;70.87;96270.50;10579630;28;20217;-76
2023/06/17 10:09:21;;;;;;;13.55;10.18;;;;;;;19.37;71.92;96258.41;10579782;28;20194;-76
2023/06/17 10:14:25;;;;;;;12.40;8.93;;;;;;;20.03;70.57;96257.75;10560892;28;20181;-76
2023/06/17 10:19:31;;;;;;;12.65;10.98;;;;;;;18.63;74.68;96284.88;10561054;28;20217;-76
2023/06/17 10:24:32;;;;;;;15.20;8.88;;;;;;;19.76;74.31;96284.69;10560818;28;20186;-76
2023/06/17 10:29:33;;;;;;;14.18;9.00;;;;;;;19.28;73.03;96262.41;10534246;28;20193;-76
2023/06/17 10:34:33;;;;;;;10.43;8.48;;;;;;;21.09;69.38;96243.72;10560427;28;20314;-76
2023/06/17 10:39:33;;;;;;;10.02;7.75;;;;;;;21.46;65.80;96216.72;10559504;28;20275;-76
2023/06/17 10:44:33;;;;;;;13.65;8.25;;;;;;;20.60;68.27;96242.09;10577842;28;20185;-77
2023/06/17 10:49:40;;;;;;;9.55;7.35;;;;;;;21.76;62.54;96175.69;10577754;27;20186;-76
2023/06/17 10:54:45;;;;;;;7.95;6.20;;;;;;;22.84;60.64;96170.09;10577530;28;20259;-77
2023/06/17 10:59:46;;;;;;;8.25;6.30;;;;;;;23.26;57.04;96134.81;10577798;28;20186;-77
2023/06/17 11:04:48;;;;;;;9.57;6.40;;;;;;;22.49;56.84;96099.16;10576855;28;20230;-77
2023/06/17 11:09:48;;;;;;;9.23;7.57;;;;;;;22.32;58.97;96149.91;10558059;28;20523;-76
2023/06/17 11:14:49;;;;;;;11.25;9.18;;;;;;;21.15;63.62;96184.97;10499485;28;20202;-76
2023/06/17 11:19:50;;;;;;;12.45;8.52;;;;;;;21.19;64.04;96196.78;10534620;28;20206;-76
2023/06/17 11:24:51;;;;;;;8.63;7.82;;;;;;;21.49;65.39;96217.06;10534757;28;20264;-76
2023/06/17 11:29:51;;;;;;;10.55;8.60;;;;;;;21.78;63.99;96210.91;10534286;28;20201;-76
2023/06/17 11:34:52;;;;;;;13.38;7.93;;;;;;;21.10;63.42;96182.22;10516136;28;20187;-76
2023/06/17 11:39:57;;;;;;;8.05;6.53;;;;;;;21.77;63.82;96210.09;10533338;28;20214;-76
2023/06/17 11:44:57;;;;;;;11.60;8.10;;;;;;;21.90;64.26;96214.34;10533074;28;20576;-76
2023/06/17 11:49:58;;;;;;;9.70;7.20;;;;;;;23.14;62.16;96206.28;10516126;28;20186;-76
2023/06/17 11:54:58;;;;;;;8.13;7.10;;;;;;;23.19;59.75;96165.47;10515562;28;20571;-76
2023/06/17 12:00:04;;;;;;;11.15;7.32;;;;;;;23.49;60.20;96187.16;10533621;28;20609;-76
2023/06/17 12:05:11;;;;;;;7.32;6.50;;;;;;;24.79;52.69;96081.84;10533202;28;20252;-76
2023/06/17 12:10:12;;;;;;;8.48;7.22;;;;;;;23.56;57.24;96135.34;10515580;28;20217;-76
2023/06/17 12:15:12;;;;;;;7.78;6.05;;;;;;;25.24;51.52;96073.09;10515559;28;20256;-76
2023/06/17 12:20:17;;;;;;;6.60;5.93;;;;;;;24.54;51.61;96054.66;10514960;28;20186;-76
2023/06/17 12:25:17;;;;;;;6.30;5.65;;;;;;;24.23;54.80;96128.69;10533047;28;20183;-76
2023/06/17 12:30:18;;;;;;;9.07;5.53;;;;;;;23.47;53.16;96076.97;10553599;28;20196;-76
2023/06/17 12:35:19;;;;;;;6.10;4.45;;;;;;;22.99;55.49;96094.69;10575081;28;20633;-76
2023/06/17 12:40:19;;;;;;;6.07;5.35;;;;;;;21.91;65.47;96256.75;10574184;28;20201;-76
2023/06/17 12:45:21;;;;;;;9.13;7.03;;;;;;;20.34;81.20;96346.28;10556751;28;20185;-75
2023/06/17 12:50:21;;;;;;;10.75;8.68;;;;;;;19.50;96.90;96323.84;10574524;28;20200;-75
2023/06/17 12:55:22;;;;;;;14.05;9.68;;;;;;;18.96;100.00;96320.13;10582133;28;20222;-75
2023/06/17 13:00:22;;;;;;;51.45;14.27;;;;;;;20.80;100.00;96321.63;10581892;28;20186;-74
2023/06/17 13:05:23;;;;;;;12.63;7.82;;;;;;;21.85;97.77;96273.72;10544194;28;20226;-75
2023/06/17 13:10:23;;;;;;;10.90;7.70;;;;;;;22.19;91.18;96262.25;10539070;28;20266;-76
2023/06/17 13:15:24;;;;;;;8.40;7.55;;;;;;;22.92;79.01;96227.59;10539457;28;20268;-76
2023/06/17 13:20:24;;;;;;;8.52;7.07;;;;;;;23.04;78.99;96227.50;10539059;28;20202;-78
2023/06/17 13:25:25;;;;;;;7.97;5.90;;;;;;;24.02;69.84;96186.59;10539082;28;20178;-77
2023/06/17 13:30:26;;;;;;;6.30;5.45;;;;;;;22.00;70.96;96174.47;10504477;28;20182;-76
2023/06/17 13:35:27;;;;;;;6.07;5.38;;;;;;;24.47;66.57;96168.44;10520324;28;20218;-77
2023/06/17 13:40:27;;;;;;;4.70;4.30;;;;;;;26.49;56.13;96071.94;10538102;28;20206;-78
2023/06/17 13:45:27;;;;;;;5.80;5.10;;;;;;;25.51;58.75;96114.97;10537931;28;20191;-77
2023/06/17 13:50:28;;;;;;;6.30;4.63;;;;;;;24.97;57.85;96094.75;10538296;28;20438;-76
2023/06/17 13:55:31;;;;;;;5.17;3.73;;;;;;;27.17;48.16;96016.81;10519968;28;20223;-76
2023/06/17 14:00:31;;;;;;;3.92;3.60;;;;;;;28.56;42.29;95945.41;10537153;28;20776;-77
2023/06/17 14:05:32;;;;;;;4.03;3.50;;;;;;;28.14;42.38;95937.06;10576304;28;20226;-76
2023/06/17 14:10:33;;;;;;;3.63;3.28;;;;;;;30.18;38.89;95942.19;10561134;28;20956;-77
2023/06/17 14:15:33;;;;;;;4.28;3.75;;;;;;;30.38;38.13;95918.53;10575833;28;20218;-76
2023/06/17 14:20:33;;;;;;;5.13;3.53;;;;;;;29.40;39.55;95930.41;10571812;27;20185;-76
2023/06/17 14:25:34;;;;;;;4.30;3.53;;;;;;;28.09;42.33;95935.25;10559165;28;20540;-76
2023/06/17 14:30:35;;;;;;;4.72;3.85;;;;;;;28.06;44.36;95986.97;10562403;28;20282;-77
2023/06/17 14:35:35;;;;;;;5.63;3.75;;;;;;;26.37;43.08;95889.66;10578143;28;20820;-77
2023/06/17 14:40:35;;;;;;;3.45;3.15;;;;;;;26.60;46.85;95998.31;10576890;28;20213;-76
2023/06/17 14:45:36;;;;;;;7.30;3.70;;;;;;;26.68;45.68;95978.16;10578007;28;20677;-76
2023/06/17 14:50:36;;;;;;;4.40;3.57;;;;;;;25.09;48.98;95996.16;10540258;28;20817;-76
2023/06/17 14:55:36;;;;;;;5.70;3.90;;;;;;;23.45;53.23;96052.38;10575608;28;21066;-76
2023/06/17 15:00:37;;;;;;;5.72;4.00;;;;;;;22.65;55.80;96081.47;10578197;27;20955;-76
2023/06/17 15:05:37;;;;;;;6.05;4.20;;;;;;;23.26;62.21;96206.97;10581996;27;20799;-75
2023/06/17 15:10:37;;;;;;;6.65;4.43;;;;;;;24.88;57.72;96148.03;10575594;28;20752;-76
2023/06/17 15:15:44;;;;;;;6.00;4.10;;;;;;;25.54;50.65;96039.34;10570098;28;20716;-76
2023/06/17 15:20:44;;;;;;;5.43;4.20;;;;;;;24.74;51.72;96047.81;10571564;28;20432;-76
2023/06/17 15:25:44;;;;;;;4.95;4.07;;;;;;;24.56;50.23;96014.22;10575410;28;20200;-75
2023/06/17 15:30:45;;;;;;;4.40;3.70;;;;;;;23.49;50.79;96018.72;10570976;28;20197;-76
2023/06/17 15:35:45;;;;;;;4.60;3.37;;;;;;;23.64;51.30;96027.91;10563480;28;20213;-76
2023/06/17 15:40:46;;;;;;;3.70;3.25;;;;;;;25.51;47.36;95999.66;10533241;28;20464;-76
2023/06/17 15:45:46;;;;;;;5.93;3.58;;;;;;;27.53;42.60;95968.91;10533941;28;20605;-77
2023/06/17 15:50:47;;;;;;;5.17;3.33;;;;;;;28.07;42.76;96010.13;10574861;28;20559;-77
2023/06/17 15:55:47;;;;;;;7.87;4.20;;;;;;;24.77;50.33;96059.88;10550357;28;22217;-76
2023/06/17 16:00:49;;;;;;;4.55;4.13;;;;;;;21.77;59.70;96166.63;10575587;28;20802;-76
2023/06/17 16:05:49;;;;;;;5.68;4.20;;;;;;;20.90;61.44;96179.91;10556805;28;20786;-77
2023/06/17 16:10:49;;;;;;;5.60;3.92;;;;;;;20.33;64.66;96232.94;10555075;28;20251;-77
2023/06/17 16:15:50;;;;;;;4.95;4.45;;;;;;;19.98;66.42;96254.97;10515461;28;20346;-76
2023/06/17 16:20:50;;;;;;;6.20;5.03;;;;;;;19.64;68.04;96281.19;10537213;28;20677;-77
2023/06/17 16:25:51;;;;;;;4.65;4.25;;;;;;;19.19;70.94;96292.97;10573861;28;20284;-76
2023/06/17 16:30:51;;;;;;;5.82;4.72;;;;;;;18.81;72.35;96299.25;10552837;28;20201;-76
2023/06/17 16:35:52;;;;;;;6.68;4.80;;;;;;;18.69;77.77;96323.81;10572548;28;20229;-76
2023/06/17 16:40:52;;;;;;;6.88;4.53;;;;;;;18.67;79.69;96315.28;10582464;28;20649;-76
2023/06/17 16:45:52;;;;;;;4.95;4.55;;;;;;;18.60;79.59;96313.72;10583226;28;20197;-76
2023/06/17 16:50:53;;;;;;;5.43;4.93;;;;;;;19.04;74.39;96264.13;10530206;28;20289;-76
2023/06/17 16:55:53;;;;;;;5.40;4.80;;;;;;;19.68;71.38;96242.47;10556931;28;20218;-76
2023/06/17 17:00:53;;;;;;;5.20;4.30;;;;;;;20.25;69.64;96231.44;10556790;28;20202;-76
2023/06/17 17:05:54;;;;;;;6.38;5.28;;;;;;;20.22;66.33;96198.13;10546794;28;20174;-76
2023/06/17 17:10:54;;;;;;;7.68;4.75;;;;;;;20.33;68.61;96233.75;10563737;28;20622;-76
2023/06/17 17:15:55;;;;;;;6.30;4.13;;;;;;;20.62;67.32;96223.22;10580889;28;20355;-76
2023/06/17 17:20:56;;;;;;;5.75;3.95;;;;;;;20.72;65.60;96210.19;10563415;28;20197;-76
2023/06/17 17:25:56;;;;;;;5.32;4.68;;;;;;;19.41;69.01;96237.53;10562578;28;20203;-76
2023/06/17 17:30:56;;;;;;;5.25;4.75;;;;;;;18.00;75.68;96301.69;10550769;28;20569;-76
2023/06/17 17:35:57;;;;;;;5.70;5.18;;;;;;;18.44;75.62;96285.91;10521003;28;20333;-76
2023/06/17 17:40:57;;;;;;;6.93;4.97;;;;;;;18.01;77.12;96290.09;10536501;28;20210;-75
2023/06/17 17:45:57;;;;;;;7.47;4.68;;;;;;;17.77;80.80;96313.63;10538371;28;20205;-76
2023/06/17 17:50:58;;;;;;;4.85;4.43;;;;;;;18.45;76.83;96283.03;10538203;28;20277;-76
2023/06/17 17:55:58;;;;;;;4.80;4.30;;;;;;;18.37;73.43;96262.06;10549638;28;20225;-76
2023/06/17 18:00:58;;;;;;;5.18;4.68;;;;;;;18.07;76.86;96307.78;10565466;28;20197;-77
2023/06/17 18:05:59;;;;;;;7.03;4.43;;;;;;;17.81;78.63;96309.53;10572226;28;20319;-76
2023/06/17 18:10:59;;;;;;;7.22;4.95;;;;;;;17.72;77.90;96316.09;10556488;28;20196;-76
2023/06/17 18:16:00;;;;;;;8.45;5.88;;;;;;;17.40;83.27;96342.50;10568385;28;20210;-76
2023/06/17 18:21:00;;;;;;;6.35;4.97;;;;;;;17.34;85.17;96340.69;10559702;28;20548;-76
2023/06/17 18:26:00;;;;;;;10.68;5.50;;;;;;;16.79;86.88;96333.03;10578555;28;20193;-76
2023/06/17 18:31:01;;;;;;;10.10;5.93;;;;;;;15.99;98.29;96349.66;10518462;28;20201;-76
2023/06/17 18:36:02;;;;;;;5.90;4.85;;;;;;;16.35;100.00;96355.59;10536207;28;20219;-75
2023/06/17 18:41:02;;;;;;;6.15;5.07;;;;;;;16.22;98.55;96351.13;10534418;28;20242;-76
2023/06/17 18:46:02;;;;;;;6.10;5.50;;;;;;;15.60;100.00;96358.22;10577978;28;20217;-75
2023/06/17 18:51:03;;;;;;;6.57;5.40;;;;;;;15.33;100.00;96366.03;10559354;28;20194;-76
2023/06/17 18:56:03;;;;;;;5.97;5.38;;;;;;;15.18;100.00;96371.41;10576467;28;20213;-76
2023/06/17 19:01:04;;;;;;;6.50;5.25;;;;;;;14.37;100.00;96374.41;10551915;28;20200;-75
2023/06/17 19:06:04;;;;;;;6.75;5.80;;;;;;;14.07;100.00;96375.34;10577397;28;20186;-75
2023/06/17 19:11:04;;;;;;;6.45;5.55;;;;;;;14.14;100.00;96383.31;10535039;28;20650;-75
2023/06/17 19:16:05;;;;;;;6.07;5.35;;;;;;;14.16;100.00;96385.75;10535223;28;20333;-75
2023/06/17 19:21:07;;;;;;;6.15;5.50;;;;;;;13.93;100.00;96384.09;10533726;28;20198;-75
2023/06/17 19:26:07;;;;;;;6.15;5.55;;;;;;;13.72;100.00;96390.97;10534639;28;20198;-75
2023/06/17 19:31:07;;;;;;;7.68;6.82;;;;;;;13.66;100.00;96406.66;10534769;28;20198;-75
2023/06/17 19:36:08;;;;;;;9.43;6.40;;;;;;;13.48;100.00;96413.13;10534050;28;20580;-75
2023/06/17 19:41:08;;;;;;;8.70;7.80;;;;;;;13.21;100.00;96417.16;10516019;28;20678;-75
2023/06/17 19:46:08;;;;;;;16.05;9.40;;;;;;;13.32;100.00;96427.25;10533871;28;20263;-75
2023/06/17 19:51:09;;;;;;;10.15;8.60;;;;;;;13.13;100.00;96423.31;10533931;28;20226;-75
2023/06/17 19:56:10;;;;;;;12.50;9.73;;;;;;;13.11;100.00;96430.59;10533813;28;20287;-75
2023/06/17 20:01:10;;;;;;;9.88;7.68;;;;;;;13.04;100.00;96424.41;10534205;28;20198;-75
2023/06/17 20:06:13;;;;;;;9.70;8.00;;;;;;;12.90;100.00;96431.28;10542376;28;20526;-75
2023/06/17 20:11:13;;;;;;;9.60;7.80;;;;;;;12.87;100.00;96425.56;10541902;28;20194;-74
2023/06/17 20:16:13;;;;;;;10.23;7.72;;;;;;;12.76;100.00;96432.88;10542360;28;20214;-74
2023/06/17 20:21:15;;;;;;;11.80;8.60;;;;;;;12.63;100.00;96428.22;10541183;28;20194;-74
2023/06/17 20:26:16;;;;;;;8.05;7.25;;;;;;;12.37;100.00;96428.53;10541650;28;20191;-74
2023/06/17 20:31:16;;;;;;;13.00;7.72;;;;;;;12.34;100.00;96421.03;10539907;28;20552;-74
2023/06/17 20:36:16;;;;;;;8.02;7.22;;;;;;;12.31;100.00;96431.88;10539106;28;20230;-73
2023/06/17 20:41:17;;;;;;;8.30;7.18;;;;;;;12.20;100.00;96427.03;10535922;28;20365;-73
2023/06/17 20:46:17;;;;;;;9.73;8.73;;;;;;;12.08;100.00;96430.06;10535305;28;20193;-73
2023/06/17 20:51:17;;;;;;;9.20;8.20;;;;;;;11.90;100.00;96442.59;10535331;28;20237;-73
2023/06/17 20:56:20;;;;;;;11.27;7.88;;;;;;;11.84;100.00;96445.88;10535081;28;20234;-73
2023/06/17 21:01:21;;;;;;;7.90;7.10;;;;;;;11.77;100.00;96438.69;10534454;28;20226;-73
2023/06/17 21:06:21;;;;;;;10.13;7.47;;;;;;;11.62;100.00;96439.59;10535049;28;20217;-73
2023/06/17 21:11:22;;;;;;;12.10;7.00;;;;;;;11.57;100.00;96440.91;10566215;28;21063;-74
2023/06/17 21:16:22;;;;;;;8.15;6.72;;;;;;;11.50;100.00;96436.50;10576234;28;20217;-73
2023/06/17 21:21:25;;;;;;;8.77;7.45;;;;;;;11.45;100.00;96436.19;10577689;28;20182;-73
2023/06/17 21:26:26;;;;;;;11.05;8.57;;;;;;;11.23;100.00;96451.66;10580533;28;20201;-73
2023/06/17 21:31:27;;;;;;;8.52;7.57;;;;;;;11.18;100.00;96453.94;10580244;28;20194;-73
2023/06/17 21:36:27;;;;;;;11.73;9.00;;;;;;;11.07;100.00;96455.94;10580546;28;20213;-73
2023/06/17 21:41:27;;;;;;;10.65;8.40;;;;;;;11.05;100.00;96450.03;10580694;28;20202;-73
2023/06/17 21:46:30;;;;;;;9.60;8.00;;;;;;;10.92;100.00;96462.84;10580527;28;20193;-73
2023/06/17 21:51:30;;;;;;;9.60;8.52;;;;;;;10.91;100.00;96457.78;10561898;28;20182;-73
2023/06/17 21:56:30;;;;;;;13.70;8.35;;;;;;;10.83;100.00;96451.53;10580387;28;20696;-73
2023/06/17 22:01:31;;;;;;;13.07;8.97;;;;;;;10.82;100.00;96455.13;10555780;28;20865;-73
2023/06/17 22:06:31;;;;;;;8.77;7.65;;;;;;;10.87;100.00;96452.03;10537703;28;20182;-73
2023/06/17 22:11:31;;;;;;;9.40;7.87;;;;;;;10.85;100.00;96444.31;10537406;28;20197;-73
2023/06/17 22:16:32;;;;;;;8.73;7.28;;;;;;;10.85;100.00;96444.31;10536821;28;20312;-73
2023/06/17 22:21:32;;;;;;;8.53;7.17;;;;;;;10.71;100.00;96437.94;10536820;28;20197;-73
2023/06/17 22:26:33;;;;;;;8.70;7.53;;;;;;;10.68;100.00;96440.09;10536157;28;20190;-73
2023/06/17 22:31:33;;;;;;;12.35;7.45;;;;;;;10.66;100.00;96440.25;10536086;28;20187;-73
2023/06/17 22:36:34;;;;;;;8.30;7.35;;;;;;;10.66;100.00;96435.00;10536496;28;20225;-73
2023/06/17 22:41:34;;;;;;;12.17;7.37;;;;;;;10.64;100.00;96430.91;10517789;28;20283;-74
2023/06/17 22:46:35;;;;;;;8.48;7.10;;;;;;;10.53;100.00;96432.88;10536116;28;20257;-73
2023/06/17 22:51:35;;;;;;;9.43;7.00;;;;;;;10.49;100.00;96433.34;10535548;28;20190;-74
2023/06/17 22:56:36;;;;;;;8.33;7.43;;;;;;;10.40;100.00;96437.78;10535555;28;20230;-73
2023/06/17 23:01:36;;;;;;;10.30;7.57;;;;;;;10.18;100.00;96433.94;10541184;28;20236;-73
2023/06/17 23:06:36;;;;;;;8.87;7.97;;;;;;;10.09;100.00;96433.13;10577535;28;20190;-73
2023/06/17 23:11:37;;;;;;;7.97;7.17;;;;;;;10.07;100.00;96439.50;10577038;28;20192;-73